Gouvelandia, Brazil
Current Conditions -  °F | °C
As of 12:18 AM on Wednesday 26 Nov 2014 (Local Time) from SBUL Reporting Station
Drizzle Drizzle  
Wind Chill: 68°   Ceiling: 200
Heat Index: 68°   Visibility: 4mi
Dew Point: 66°   Wind: 6mph
Humidity: 94%   Direction: 340°NNW
Pressure: 30"   Gusts: NA
Location:  18.64°S, 50.07°W
Report Text: SBUL 260218Z 34005KT 6000 -DZ OVC002 20/19 Q1016
Loading
Personal Weather Stations






























Interactive Weather Map New forecast layout! Learn more

10-Day Weather Forecast

Advertisements
Track Severe Weather on mobile